D/T METAR WX W/DIR W/SPE G/SPE TEMP DEWP
7/12/19 23:20 EGPM 072320Z AUTO 13023KT 3400 RA BKN003/// OVC008/// 07/07 Q0975 RERA RA SE (130°) 26.5mph 7°C 7°C
7/12/19 22:50 EGPM 072250Z AUTO 13029G40KT 2200 RA SCT002/// OVC008/// 07/06 Q0976 RERA RA SE (130°) 33.4mph 46.0mph 7°C 6°C
7/12/19 22:20 EGPM 072220Z AUTO 12031G42KT 1000 +RA BKN002/// OVC009/// 06/05 Q0978 +RA ESE (120°) 35.7mph 48.3mph 6°C 5°C
7/12/19 21:50 EGPM 072150Z AUTO 12026G39KT 1800 +RA FEW002/// OVC008/// 06/05 Q0980 +RA ESE (120°) 29.9mph 44.9mph 6°C 5°C
7/12/19 21:20 EGPM 072120Z AUTO 12026KT 9000 -RA FEW002/// BKN008/// OVC020/// 05/04 Q0982 RERA -RA ESE (120°) 29.9mph 5°C 4°C
7/12/19 20:50 EGPM 072050Z AUTO 12025G35KT 2400 +RA BKN010/// OVC021/// 05/03 Q0984 +RA ESE (120°) 28.8mph 40.3mph 5°C 3°C
7/12/19 20:20 EGPM 072020Z AUTO 12021G31KT 4100 RA FEW003/// OVC008/// 05/04 Q0986 RA ESE (120°) 24.2mph 35.7mph 5°C 4°C
7/12/19 19:50 EGPM 071950Z AUTO 12020KT 6000 -RA SCT002/// OVC008/// 05/04 Q0987 RERA -RA ESE (120°) 23.0mph 5°C 4°C
7/12/19 19:20 EGPM 071920Z AUTO 12017KT 7000 -RA SCT002/// BKN010/// OVC023/// 04/03 Q0989 -RA ESE (120°) 19.6mph 4°C 3°C
7/12/19 18:50 EGPM 071850Z AUTO 12018KT 6000 -RA SCT006/// BKN014/// OVC025/// 04/03 Q0990 -RA ESE (120°) 20.7mph 4°C 3°C
7/12/19 17:50 EGPM 071750Z AUTO 13010KT 9999 -RA SCT004/// BKN020/// 04/01 Q0993 -RA SE (130°) 11.5mph 4°C 1°C
7/12/19 17:20 EGPM 071720Z AUTO 13012KT 9999 -RA FEW020/// SCT029/// 04/00 Q0993 -RA SE (130°) 13.8mph 4°C 0°C
7/12/19 16:50 EGPM 071650Z AUTO 14012KT 9999 -RA FEW014/// 03/M01 Q0994 -RA SE (140°) 13.8mph 3°C -1°C
7/12/19 15:50 EGPM 071550Z AUTO 14008KT 9999 SCT035/// 02/M01 Q0996 SE (140°) 9.2mph 2°C -1°C
7/12/19 15:20 EGPM 071520Z AUTO 16010KT 9999 FEW036/// 02/M02 Q0996 SSE (160°) 11.5mph 2°C -2°C
7/12/19 14:50 EGPM 071450Z AUTO 16010KT 9999 NCD 02/M02 Q0997 SSE (160°) 11.5mph 2°C -2°C
7/12/19 14:20 EGPM 071420Z AUTO VRB01KT 9999 NCD 01/M01 Q0997 N (0°) 1.2mph 1°C -1°C
7/12/19 13:50 EGPM 071350Z AUTO 00000KT 350V080 9999 NCD 01/M01 Q0998 N (0°) 1°C -1°C
7/12/19 13:20 EGPM 071320Z AUTO VRB01KT 9999 NCD 01/M01 Q0998 N (0°) 1.2mph 1°C -1°C
7/12/19 12:50 EGPM 071250Z AUTO 19004KT 9999 NCD 01/M01 Q0998 S (190°) 4.6mph 1°C -1°C
7/12/19 12:20 EGPM 071220Z AUTO 20003KT 9999 NCD 01/M01 Q0999 SSW (200°) 3.5mph 1°C -1°C
7/12/19 11:50 EGPM 071150Z AUTO 23005KT 9999 NCD 01/M02 Q0999 SW (230°) 5.8mph 1°C -2°C
7/12/19 11:20 EGPM 071120Z AUTO 23006KT 9999 NCD 01/M01 Q1000 SW (230°) 6.9mph 1°C -1°C
7/12/19 10:50 EGPM 071050Z AUTO 29005KT 260V330 9999 FEW042/// 03/M02 Q0999 WNW (290°) 5.8mph 3°C -2°C
7/12/19 10:20 EGPM 071020Z AUTO 29005KT 260V330 9999 NCD 03/M02 Q0999 WNW (290°) 5.8mph 3°C -2°C
7/12/19 09:50 EGPM 070950Z AUTO 27004KT 250V310 9999 BKN037/// 02/M01 Q0999 W (270°) 4.6mph 2°C -1°C
7/12/19 09:20 EGPM 070920Z AUTO 31004KT 270V350 9999 SCT042/// 03/M01 Q0999 NW (310°) 4.6mph 3°C -1°C
7/12/19 08:50 EGPM 070850Z AUTO 30005KT 260V330 9999 SCT042/// 03/M02 Q0999 WNW (300°) 5.8mph 3°C -2°C
7/12/19 08:20 EGPM 070820Z AUTO 31007KT 9999 BKN033/// BKN047/// 03/M01 Q0999 NW (310°) 8.1mph 3°C -1°C
7/12/19 07:50 EGPM 070750Z AUTO 28006KT 9999 FEW037/// SCT046/// 03/M01 Q0998 W (280°) 6.9mph 3°C -1°C
7/12/19 07:20 EGPM 070720Z AUTO 32006KT 9999 FEW042/// 03/M01 Q0998 NW (320°) 6.9mph 3°C -1°C
7/12/19 06:50 EGPM 070650Z AUTO 28004KT 250V330 9999 BKN037/// 02/M00 Q0998 W (280°) 4.6mph 2°C 0°C
7/12/19 06:20 EGPM 070620Z AUTO 30004KT 260V330 9999 FEW029/// BKN040/// 03/M00 Q0998 WNW (300°) 4.6mph 3°C 0°C
7/12/19 05:50 EGPM 070550Z AUTO 28006KT 230V340 9999 FEW018/// BKN025/// 02/01 Q0998 W (280°) 6.9mph 2°C 1°C
7/12/19 04:50 EGPM 070450Z AUTO 29006KT 250V340 9999 FEW005/// SCT028/// BKN047/// 03/01 Q0997 RERA WNW (290°) 6.9mph 3°C 1°C
7/12/19 04:20 EGPM 070420Z AUTO 30010KT 9999 FEW002/// BKN008/// 03/01 Q0997 RERA WNW (300°) 11.5mph 3°C 1°C
7/12/19 03:50 EGPM 070350Z AUTO 26005KT 240V300 9999 FEW004/// BKN020/// BKN037/// 02/01 Q0996 W (260°) 5.8mph 2°C 1°C
7/12/19 03:20 EGPM 070320Z AUTO VRB03KT 9999 FEW005/// SCT011/// BKN048/// 01/00 Q0996 RERA N (0°) 3.5mph 1°C 0°C
7/12/19 02:50 EGPM 070250Z AUTO 28008G19KT 250V310 9999 FEW004/// BKN016/// BKN029/// 03/01 Q0996 W (280°) 9.2mph 21.9mph 3°C 1°C
7/12/19 02:20 EGPM 070220Z AUTO 33009KT 9999 SCT012/// BKN024/// BKN037/// 03/01 Q0995 NNW (330°) 10.4mph 3°C 1°C
7/12/19 01:20 EGPM 070120Z AUTO 29007KT 9999 FEW013/// SCT026/// 03/01 Q0995 RERA WNW (290°) 8.1mph 3°C 1°C
7/12/19 00:50 EGPM 070050Z AUTO 27014KT 4700 RA BKN013/// 02/01 Q0995 RA W (270°) 16.1mph 2°C 1°C
7/12/19 00:20 EGPM 070020Z AUTO 30010KT 9999 FEW004/// BKN044/// 03/01 Q0995 WNW (300°) 11.5mph 3°C 1°C
6/12/19 23:50 EGPM 062350Z AUTO 29016G27KT 270V330 9999 FEW023/// SCT049/// 05/01 Q0994 WNW (290°) 18.4mph 31.1mph 5°C 1°C
6/12/19 23:20 EGPM 062320Z AUTO 27015KT 9999 FEW025/// SCT039/// 03/M00 Q0993 W (270°) 17.3mph 3°C 0°C
6/12/19 22:50 EGPM 062250Z AUTO 31012KT 9999 FEW000/// 03/01 Q0993 NW (310°) 13.8mph 3°C 1°C
6/12/19 22:20 EGPM 062220Z AUTO 28011G26KT 250V320 7000 FEW015/// SCT033/// 04/01 Q0993 W (280°) 12.7mph 29.9mph 4°C 1°C
6/12/19 21:50 EGPM 062150Z AUTO 29005KT 250V320 9999 FEW002/// BKN033/// BKN043/// 04/01 Q0993 RERA WNW (290°) 5.8mph 4°C 1°C